sensor_id;sensor_type;location;lat;lon;timestamp;pressure;altitude;pressure_sealevel;temperature;humidity
74913;BME280;63878;55.624;37.304;2023-08-06T00:06:31;99282.25;;;19.49;55.30
74913;BME280;63878;55.624;37.304;2023-08-06T00:16:32;99294.66;;;19.35;55.87
74913;BME280;63878;55.624;37.304;2023-08-06T00:26:33;99295.69;;;19.34;55.99
74913;BME280;63878;55.624;37.304;2023-08-06T00:36:33;99299.44;;;19.40;56.00
74913;BME280;63878;55.624;37.304;2023-08-06T00:46:34;99294.38;;;19.30;55.83
74913;BME280;63878;55.624;37.304;2023-08-06T00:56:35;99298.53;;;19.18;56.52
74913;BME280;63878;55.624;37.304;2023-08-06T01:06:48;99301.69;;;19.22;56.46
74913;BME280;63878;55.624;37.304;2023-08-06T01:16:50;99293.13;;;18.97;56.85
74913;BME280;63878;55.624;37.304;2023-08-06T01:27:09;99302.09;;;18.89;57.37
74913;BME280;63878;55.624;37.304;2023-08-06T01:37:12;99298.84;;;18.93;57.39
74913;BME280;63878;55.624;37.304;2023-08-06T01:47:12;99307.63;;;18.87;57.21
74913;BME280;63878;55.624;37.304;2023-08-06T01:57:13;99314.63;;;18.88;57.04
74913;BME280;63878;55.624;37.304;2023-08-06T02:07:13;99318.16;;;18.74;57.40
74913;BME280;63878;55.624;37.304;2023-08-06T02:17:14;99319.63;;;18.77;57.46
74913;BME280;63878;55.624;37.304;2023-08-06T02:27:15;99337.97;;;18.95;57.07
74913;BME280;63878;55.624;37.304;2023-08-06T02:37:15;99340.34;;;19.19;56.42
74913;BME280;63878;55.624;37.304;2023-08-06T02:47:15;99337.66;;;19.19;56.35
74913;BME280;63878;55.624;37.304;2023-08-06T02:57:16;99341.34;;;19.33;55.55
74913;BME280;63878;55.624;37.304;2023-08-06T03:07:16;99303.84;;;19.33;55.36
74913;BME280;63878;55.624;37.304;2023-08-06T03:17:17;99321.88;;;19.96;54.13
74913;BME280;63878;55.624;37.304;2023-08-06T03:27:17;99332.72;;;20.31;53.47
74913;BME280;63878;55.624;37.304;2023-08-06T03:37:18;99328.91;;;21.10;51.53
74913;BME280;63878;55.624;37.304;2023-08-06T03:47:19;99329.56;;;21.18;51.64
74913;BME280;63878;55.624;37.304;2023-08-06T03:57:20;99338.00;;;21.56;50.71
74913;BME280;63878;55.624;37.304;2023-08-06T04:07:20;99326.97;;;22.06;49.08
74913;BME280;63878;55.624;37.304;2023-08-06T04:17:21;99322.41;;;22.06;49.56
74913;BME280;63878;55.624;37.304;2023-08-06T04:27:22;99315.78;;;22.68;48.16
74913;BME280;63878;55.624;37.304;2023-08-06T04:37:22;99326.59;;;23.20;46.61
74913;BME280;63878;55.624;37.304;2023-08-06T04:47:23;99327.34;;;23.47;45.45
74913;BME280;63878;55.624;37.304;2023-08-06T04:57:24;99326.94;;;24.13;44.72
74913;BME280;63878;55.624;37.304;2023-08-06T05:07:24;99311.88;;;24.49;44.22
74913;BME280;63878;55.624;37.304;2023-08-06T05:17:24;99319.56;;;24.77;44.18
74913;BME280;63878;55.624;37.304;2023-08-06T05:27:25;99312.50;;;24.94;43.76
74913;BME280;63878;55.624;37.304;2023-08-06T05:37:25;99313.25;;;24.65;43.52
74913;BME280;63878;55.624;37.304;2023-08-06T05:47:26;99312.13;;;25.27;42.36
74913;BME280;63878;55.624;37.304;2023-08-06T05:57:26;99306.22;;;25.49;42.56
74913;BME280;63878;55.624;37.304;2023-08-06T06:07:27;99301.09;;;25.59;40.77
74913;BME280;63878;55.624;37.304;2023-08-06T06:17:29;99291.78;;;25.73;41.50
74913;BME280;63878;55.624;37.304;2023-08-06T06:27:29;99303.59;;;26.02;40.97
74913;BME280;63878;55.624;37.304;2023-08-06T06:37:30;99294.78;;;26.18;40.66
74913;BME280;63878;55.624;37.304;2023-08-06T06:47:30;99289.38;;;26.07;40.08
74913;BME280;63878;55.624;37.304;2023-08-06T06:57:31;99290.88;;;26.03;40.17
74913;BME280;63878;55.624;37.304;2023-08-06T07:07:31;99289.63;;;26.17;40.58
74913;BME280;63878;55.624;37.304;2023-08-06T07:17:32;99286.91;;;26.05;40.86
74913;BME280;63878;55.624;37.304;2023-08-06T07:27:33;99278.59;;;26.54;39.13
74913;BME280;63878;55.624;37.304;2023-08-06T07:37:34;99277.44;;;26.38;39.33
74913;BME280;63878;55.624;37.304;2023-08-06T07:47:34;99271.06;;;26.44;39.55
74913;BME280;63878;55.624;37.304;2023-08-06T07:57:35;99270.69;;;26.17;40.61
74913;BME280;63878;55.624;37.304;2023-08-06T08:07:35;99260.59;;;26.24;40.26
74913;BME280;63878;55.624;37.304;2023-08-06T08:17:36;99251.75;;;26.17;39.20
74913;BME280;63878;55.624;37.304;2023-08-06T08:27:36;99244.19;;;25.96;41.26
74913;BME280;63878;55.624;37.304;2023-08-06T08:37:37;99243.72;;;25.87;41.30
74913;BME280;63878;55.624;37.304;2023-08-06T08:47:38;99243.59;;;25.93;41.17
74913;BME280;63878;55.624;37.304;2023-08-06T08:57:39;99235.69;;;25.80;40.27
74913;BME280;63878;55.624;37.304;2023-08-06T09:07:45;99233.72;;;25.87;40.21
74913;BME280;63878;55.624;37.304;2023-08-06T09:17:48;99229.59;;;25.85;40.28
74913;BME280;63878;55.624;37.304;2023-08-06T09:27:48;99223.94;;;25.75;41.35
74913;BME280;63878;55.624;37.304;2023-08-06T09:37:50;99192.59;;;25.55;41.80
74913;BME280;63878;55.624;37.304;2023-08-06T09:47:50;99204.78;;;25.88;40.98
74913;BME280;63878;55.624;37.304;2023-08-06T09:57:56;99195.56;;;25.65;41.54
74913;BME280;63878;55.624;37.304;2023-08-06T10:07:56;99178.81;;;25.99;41.35
74913;BME280;63878;55.624;37.304;2023-08-06T10:17:58;99173.16;;;25.77;41.82
74913;BME280;63878;55.624;37.304;2023-08-06T10:28:00;99164.22;;;25.76;41.06
74913;BME280;63878;55.624;37.304;2023-08-06T10:38:20;99157.63;;;25.96;41.52
74913;BME280;63878;55.624;37.304;2023-08-06T10:54:45;99150.34;;;30.84;40.12
74913;BME280;63878;55.624;37.304;2023-08-06T11:04:48;99147.38;;;31.21;40.31
74913;BME280;63878;55.624;37.304;2023-08-06T11:14:51;99137.19;;;31.23;40.42
74913;BME280;63878;55.624;37.304;2023-08-06T11:24:53;99146.44;;;31.39;39.69
74913;BME280;63878;55.624;37.304;2023-08-06T11:34:53;99134.09;;;31.31;40.14
74913;BME280;63878;55.624;37.304;2023-08-06T11:44:56;99132.19;;;31.20;39.80
74913;BME280;63878;55.624;37.304;2023-08-06T11:55:03;99109.38;;;31.16;40.28
74913;BME280;63878;55.624;37.304;2023-08-06T12:05:16;99120.81;;;30.95;41.13
74913;BME280;63878;55.624;37.304;2023-08-06T12:15:17;99121.50;;;31.02;41.33
74913;BME280;63878;55.624;37.304;2023-08-06T12:25:18;99111.19;;;30.99;40.77
74913;BME280;63878;55.624;37.304;2023-08-06T12:35:18;99107.19;;;30.78;41.16
74913;BME280;63878;55.624;37.304;2023-08-06T12:45:19;99095.31;;;30.79;42.28
74913;BME280;63878;55.624;37.304;2023-08-06T12:55:20;99094.25;;;30.91;41.05
74913;BME280;63878;55.624;37.304;2023-08-06T13:05:23;99091.53;;;31.03;40.63
74913;BME280;63878;55.624;37.304;2023-08-06T13:15:25;99092.38;;;30.92;41.14
74913;BME280;63878;55.624;37.304;2023-08-06T13:25:26;99077.78;;;31.05;40.80
74913;BME280;63878;55.624;37.304;2023-08-06T13:35:27;99071.97;;;31.13;39.31
74913;BME280;63878;55.624;37.304;2023-08-06T13:45:27;99068.00;;;31.04;39.66
74913;BME280;63878;55.624;37.304;2023-08-06T13:55:28;99055.06;;;31.06;39.32
74913;BME280;63878;55.624;37.304;2023-08-06T14:05:28;99054.84;;;30.96;39.75
74913;BME280;63878;55.624;37.304;2023-08-06T14:15:29;99052.13;;;30.96;39.58
74913;BME280;63878;55.624;37.304;2023-08-06T14:25:30;99047.28;;;31.09;38.93
74913;BME280;63878;55.624;37.304;2023-08-06T14:35:30;99042.09;;;31.08;39.42
74913;BME280;63878;55.624;37.304;2023-08-06T14:45:30;99038.72;;;31.01;40.68
74913;BME280;63878;55.624;37.304;2023-08-06T14:55:31;99041.13;;;30.74;41.84
74913;BME280;63878;55.624;37.304;2023-08-06T15:05:32;99047.00;;;30.71;41.45
74913;BME280;63878;55.624;37.304;2023-08-06T15:15:33;99038.41;;;30.85;41.42
74913;BME280;63878;55.624;37.304;2023-08-06T15:25:35;99032.56;;;30.77;41.79
74913;BME280;63878;55.624;37.304;2023-08-06T15:35:35;99031.22;;;30.56;41.52
74913;BME280;63878;55.624;37.304;2023-08-06T15:45:36;99034.66;;;30.39;42.24
74913;BME280;63878;55.624;37.304;2023-08-06T15:55:37;99026.78;;;30.26;42.00
74913;BME280;63878;55.624;37.304;2023-08-06T16:05:37;99027.59;;;30.38;42.36
74913;BME280;63878;55.624;37.304;2023-08-06T16:15:39;99023.75;;;29.93;44.02
74913;BME280;63878;55.624;37.304;2023-08-06T16:25:40;99029.75;;;29.83;44.25
74913;BME280;63878;55.624;37.304;2023-08-06T16:35:41;99037.66;;;29.66;45.28
74913;BME280;63878;55.624;37.304;2023-08-06T16:45:41;99039.06;;;29.39;45.67
74913;BME280;63878;55.624;37.304;2023-08-06T16:55:42;99039.47;;;29.24;45.90
74913;BME280;63878;55.624;37.304;2023-08-06T17:05:43;99039.09;;;29.02;46.36
74913;BME280;63878;55.624;37.304;2023-08-06T17:15:44;99031.97;;;28.89;46.56
74913;BME280;63878;55.624;37.304;2023-08-06T17:25:45;99039.75;;;28.61;46.91
74913;BME280;63878;55.624;37.304;2023-08-06T17:35:46;99031.22;;;28.64;46.72
74913;BME280;63878;55.624;37.304;2023-08-06T17:45:46;99037.09;;;28.54;46.74
74913;BME280;63878;55.624;37.304;2023-08-06T17:55:46;99036.63;;;28.39;46.80
74913;BME280;63878;55.624;37.304;2023-08-06T18:05:53;99039.41;;;28.26;47.17
74913;BME280;63878;55.624;37.304;2023-08-06T18:15:54;99046.91;;;28.23;47.26
74913;BME280;63878;55.624;37.304;2023-08-06T18:25:55;99029.50;;;27.94;47.86
74913;BME280;63878;55.624;37.304;2023-08-06T18:35:55;99037.50;;;27.83;48.06
74913;BME280;63878;55.624;37.304;2023-08-06T18:45:56;99032.59;;;27.66;48.34
74913;BME280;63878;55.624;37.304;2023-08-06T18:55:56;99019.63;;;27.57;48.31
74913;BME280;63878;55.624;37.304;2023-08-06T19:05:59;99021.06;;;27.91;47.42
74913;BME280;63878;55.624;37.304;2023-08-06T19:15:59;99010.81;;;27.43;48.53
74913;BME280;63878;55.624;37.304;2023-08-06T19:26:00;99009.13;;;27.80;47.39
74913;BME280;63878;55.624;37.304;2023-08-06T19:36:00;99011.19;;;27.47;48.01
74913;BME280;63878;55.624;37.304;2023-08-06T19:46:01;98999.72;;;27.26;47.97
74913;BME280;63878;55.624;37.304;2023-08-06T19:56:03;99003.66;;;27.24;48.26
74913;BME280;63878;55.624;37.304;2023-08-06T20:06:04;99012.31;;;27.32;47.80
74913;BME280;63878;55.624;37.304;2023-08-06T20:16:04;99001.47;;;27.46;47.32
74913;BME280;63878;55.624;37.304;2023-08-06T20:26:05;99006.72;;;27.65;47.04
74913;BME280;63878;55.624;37.304;2023-08-06T20:36:05;99015.50;;;27.16;48.65
74913;BME280;63878;55.624;37.304;2023-08-06T20:46:06;98990.03;;;27.19;48.29
74913;BME280;63878;55.624;37.304;2023-08-06T20:56:08;99007.38;;;27.29;48.67
74913;BME280;63878;55.624;37.304;2023-08-06T21:06:08;99008.63;;;27.20;49.25
74913;BME280;63878;55.624;37.304;2023-08-06T21:16:09;99009.94;;;27.11;49.64
74913;BME280;63878;55.624;37.304;2023-08-06T21:26:09;99015.06;;;27.19;49.09
74913;BME280;63878;55.624;37.304;2023-08-06T21:36:10;99001.94;;;26.84;50.18
74913;BME280;63878;55.624;37.304;2023-08-06T21:46:13;99020.94;;;26.96;49.59
74913;BME280;63878;55.624;37.304;2023-08-06T21:56:15;99001.34;;;26.82;48.95
74913;BME280;63878;55.624;37.304;2023-08-06T22:06:16;99013.25;;;27.00;49.22
74913;BME280;63878;55.624;37.304;2023-08-06T22:16:16;99014.56;;;26.77;50.50
74913;BME280;63878;55.624;37.304;2023-08-06T22:26:17;98996.00;;;26.69;50.11
74913;BME280;63878;55.624;37.304;2023-08-06T22:36:17;98998.53;;;26.31;51.90
74913;BME280;63878;55.624;37.304;2023-08-06T22:46:18;98999.78;;;26.22;50.94
74913;BME280;63878;55.624;37.304;2023-08-06T22:56:18;98984.50;;;26.16;50.92
74913;BME280;63878;55.624;37.304;2023-08-06T23:06:19;98994.59;;;25.87;51.45
74913;BME280;63878;55.624;37.304;2023-08-06T23:16:19;98994.00;;;25.85;51.01
74913;BME280;63878;55.624;37.304;2023-08-06T23:26:20;98978.31;;;25.82;50.87
74913;BME280;63878;55.624;37.304;2023-08-06T23:36:20;98974.97;;;25.60;51.82
74913;BME280;63878;55.624;37.304;2023-08-06T23:46:20;98971.25;;;25.68;51.65
74913;BME280;63878;55.624;37.304;2023-08-06T23:56:21;98949.63;;;25.76;50.78
